Time;durP1;ratioP1;P1;durP2;ratioP2;P2;SDS_P1;SDS_P2;PMS_P1;PMS_P2;Temp;Humidity;BMP_temperature;BMP_pressure;BME280_temperature;BME280_humidity;BME280_pressure;Samples;Min_cycle;Max_cycle;Signal;HPM_P1;HPM_P2
2023/01/14 00:00:44;;;;;;;0.95;0.15;;;3.60;99.90;;;;;;10164178;23;20006;-79
2023/01/14 00:04:44;;;;;;;0.75;0.20;;;3.70;99.90;;;;;;10183084;23;20013;-80
2023/01/14 00:08:45;;;;;;;0.50;0.20;;;3.80;99.90;;;;;;10162695;23;20028;-79
2023/01/14 00:12:46;;;;;;;0.50;0.10;;;3.80;99.90;;;;;;10162058;23;20024;-78
2023/01/14 00:16:47;;;;;;;1.63;0.40;;;3.60;99.90;;;;;;10187894;23;20006;-81
2023/01/14 00:21:03;;;;;;;0.52;0.35;;;3.50;99.90;;;;;;10187737;23;20467;-79
2023/01/14 00:25:04;;;;;;;2.20;0.20;;;3.60;99.90;;;;;;10164079;23;20093;-80
2023/01/14 00:29:04;;;;;;;2.08;0.35;;;3.60;99.90;;;;;;10186495;23;20373;-79
2023/01/14 00:33:05;;;;;;;2.08;0.20;;;3.70;99.90;;;;;;10164502;23;20034;-78
2023/01/14 00:37:05;;;;;;;1.10;0.40;;;3.70;99.90;;;;;;10187399;23;20006;-78
2023/01/14 00:41:12;;;;;;;3.95;0.50;;;3.80;99.90;;;;;;10187589;23;20337;-79
2023/01/14 00:45:12;;;;;;;1.20;0.55;;;3.70;99.90;;;;;;10160853;23;20001;-79
2023/01/14 00:49:19;;;;;;;0.52;0.35;;;3.60;99.90;;;;;;10187275;23;20146;-80
2023/01/14 00:53:20;;;;;;;2.45;0.70;;;3.50;99.90;;;;;;10187123;23;20008;-79
2023/01/14 00:57:20;;;;;;;2.58;0.70;;;3.30;99.90;;;;;;10186798;23;20002;-79
2023/01/14 01:01:21;;;;;;;0.65;0.57;;;3.20;99.90;;;;;;10161413;23;20008;-79
2023/01/14 01:05:21;;;;;;;2.38;0.40;;;3.30;99.90;;;;;;10166010;23;20546;-78
2023/01/14 01:09:22;;;;;;;2.83;0.55;;;3.30;99.90;;;;;;10160033;23;20025;-79
2023/01/14 01:13:23;;;;;;;0.93;0.28;;;3.30;99.90;;;;;;10159987;23;20333;-80
2023/01/14 01:17:23;;;;;;;1.33;0.50;;;3.30;99.90;;;;;;10176769;23;20013;-80
2023/01/14 01:21:25;;;;;;;0.10;0.10;;;3.30;99.90;;;;;;10162010;23;20036;-79
2023/01/14 01:25:26;;;;;;;0.20;0.20;;;3.40;99.90;;;;;;10186622;23;20093;-79
2023/01/14 01:29:26;;;;;;;0.40;0.30;;;3.30;99.90;;;;;;10187661;23;20009;-80
2023/01/14 01:33:27;;;;;;;2.15;0.65;;;3.30;99.90;;;;;;10160860;23;20130;-79
2023/01/14 01:37:28;;;;;;;0.90;0.40;;;3.50;99.90;;;;;;10160952;23;20089;-78
2023/01/14 01:41:30;;;;;;;2.22;0.60;;;3.60;99.90;;;;;;10162483;23;20035;-79
2023/01/14 01:45:42;;;;;;;1.00;0.50;;;3.70;99.90;;;;;;10188453;23;20028;-79
2023/01/14 01:49:43;;;;;;;1.65;0.75;;;3.70;99.90;;;;;;10162322;23;20017;-79
2023/01/14 01:53:47;;;;;;;0.65;0.55;;;3.70;99.90;;;;;;10162914;23;20072;-79
2023/01/14 01:57:55;;;;;;;0.60;0.60;;;3.80;99.90;;;;;;10161897;23;20005;-78
2023/01/14 02:01:56;;;;;;;1.63;0.63;;;3.80;99.90;;;;;;10186925;23;20072;-81
2023/01/14 02:05:56;;;;;;;1.75;0.47;;;4.00;99.90;;;;;;10188251;23;20002;-80
2023/01/14 02:10:04;;;;;;;1.70;0.45;;;4.10;99.90;;;;;;10162446;23;20017;-78
2023/01/14 02:14:44;;;;;;;1.45;0.50;;;4.10;99.90;;;;;;10188848;23;20017;-80
2023/01/14 02:19:07;;;;;;;1.70;0.60;;;4.20;99.90;;;;;;10188375;23;20357;-79
2023/01/14 02:23:32;;;;;;;1.38;0.75;;;4.10;99.90;;;;;;10188018;23;20470;-79
2023/01/14 02:28:01;;;;;;;1.08;0.85;;;3.90;99.90;;;;;;10179263;23;20016;-80
2023/01/14 02:32:23;;;;;;;1.45;0.85;;;3.90;99.90;;;;;;10186777;23;20014;-79
2023/01/14 02:36:58;;;;;;;2.22;0.80;;;4.00;99.90;;;;;;10166157;23;20412;-79
2023/01/14 02:41:13;;;;;;;1.98;0.90;;;4.10;99.90;;;;;;10187594;23;20344;-80
2023/01/14 02:45:25;;;;;;;1.27;0.60;;;4.20;99.90;;;;;;10161060;23;20005;-80
2023/01/14 02:49:29;;;;;;;1.67;0.52;;;4.30;99.90;;;;;;10188337;23;20010;-79
2023/01/14 02:53:30;;;;;;;1.38;0.80;;;4.20;99.90;;;;;;10188091;23;20001;-79
2023/01/14 02:57:36;;;;;;;0.98;0.47;;;4.30;99.90;;;;;;10186859;23;20005;-78
2023/01/14 03:01:59;;;;;;;2.75;0.90;;;4.30;99.90;;;;;;10161291;23;20137;-79
2023/01/14 03:06:17;;;;;;;1.30;0.50;;;4.30;99.90;;;;;;10160057;23;20016;-80
2023/01/14 03:10:26;;;;;;;5.97;0.70;;;4.20;99.90;;;;;;10186665;23;20499;-80
2023/01/14 03:14:38;;;;;;;0.70;0.40;;;4.10;99.90;;;;;;10178030;23;20012;-79
2023/01/14 03:18:48;;;;;;;1.55;0.73;;;4.40;99.90;;;;;;10187875;23;20009;-80
2023/01/14 03:22:50;;;;;;;1.35;0.70;;;4.60;99.90;;;;;;10163703;23;20495;-79
2023/01/14 03:26:55;;;;;;;1.55;0.73;;;4.90;99.90;;;;;;10186688;23;20017;-79
2023/01/14 03:31:00;;;;;;;4.22;0.65;;;4.60;99.90;;;;;;10164735;23;20020;-79
2023/01/14 03:35:16;;;;;;;1.42;0.60;;;4.60;99.90;;;;;;10164255;23;20012;-79
2023/01/14 03:39:21;;;;;;;1.95;0.60;;;4.50;99.90;;;;;;10163192;23;20037;-80
2023/01/14 03:43:51;;;;;;;4.57;1.08;;;4.40;99.90;;;;;;10188325;23;20084;-80
2023/01/14 03:47:52;;;;;;;0.52;0.50;;;4.20;99.90;;;;;;10188284;23;20002;-79
2023/01/14 03:52:06;;;;;;;1.80;0.73;;;4.00;99.90;;;;;;10160946;23;20013;-79
2023/01/14 03:56:26;;;;;;;1.35;0.40;;;4.30;99.90;;;;;;10163527;23;20016;-79
2023/01/14 04:00:31;;;;;;;2.33;0.77;;;4.20;99.90;;;;;;10165717;23;20051;-80
2023/01/14 04:04:32;;;;;;;5.90;0.80;;;4.30;99.90;;;;;;10165000;23;20004;-79
2023/01/14 04:08:33;;;;;;;1.55;0.63;;;4.20;99.90;;;;;;10164681;23;20610;-79
2023/01/14 04:12:33;;;;;;;1.55;0.60;;;4.30;99.90;;;;;;10185199;23;20024;-81
2023/01/14 04:16:34;;;;;;;1.85;0.47;;;4.10;99.90;;;;;;10239689;23;20121;-81
2023/01/14 04:20:35;;;;;;;3.15;0.73;;;4.00;99.90;;;;;;10239647;23;20008;-80
2023/01/14 04:24:35;;;;;;;2.25;0.68;;;4.00;99.90;;;;;;10190601;23;20032;-80
2023/01/14 04:28:36;;;;;;;4.32;0.55;;;4.00;99.90;;;;;;10164254;23;20012;-80
2023/01/14 04:32:36;;;;;;;3.95;0.63;;;3.90;99.90;;;;;;10189984;23;20010;-81
2023/01/14 04:36:37;;;;;;;1.77;0.45;;;3.80;99.90;;;;;;10190883;23;20013;-81
2023/01/14 04:40:37;;;;;;;1.05;0.40;;;3.80;99.90;;;;;;10164666;23;20088;-81
2023/01/14 04:44:38;;;;;;;3.15;0.73;;;3.80;99.90;;;;;;10176642;23;19998;-81
2023/01/14 04:48:38;;;;;;;1.70;0.43;;;3.80;99.90;;;;;;10162658;23;20005;-80
2023/01/14 04:52:39;;;;;;;5.20;1.13;;;3.60;99.90;;;;;;10162859;23;20016;-81
2023/01/14 04:56:39;;;;;;;1.85;0.75;;;3.50;99.90;;;;;;10186134;23;20444;-81
2023/01/14 05:00:41;;;;;;;2.88;0.57;;;3.50;99.90;;;;;;10163525;23;20002;-81
2023/01/14 05:04:42;;;;;;;0.82;0.40;;;3.40;99.90;;;;;;10161949;23;20005;-81
2023/01/14 05:08:42;;;;;;;2.35;0.77;;;3.30;99.90;;;;;;10161636;23;20512;-80
2023/01/14 05:12:55;;;;;;;1.70;0.50;;;3.30;99.90;;;;;;10162651;23;20018;-80
2023/01/14 05:16:56;;;;;;;2.90;0.52;;;3.20;99.90;;;;;;10162670;23;20496;-81
2023/01/14 05:20:56;;;;;;;0.95;0.30;;;3.30;99.90;;;;;;10162579;23;20005;-80
2023/01/14 05:24:57;;;;;;;1.60;0.47;;;3.30;99.90;;;;;;10160727;23;20009;-80
2023/01/14 05:28:57;;;;;;;6.05;0.90;;;3.40;99.90;;;;;;10155451;23;20005;-81
2023/01/14 05:32:58;;;;;;;3.15;0.80;;;3.30;99.90;;;;;;10160041;23;20037;-81
2023/01/14 05:36:58;;;;;;;4.38;0.65;;;3.20;99.90;;;;;;10177522;23;20511;-81
2023/01/14 05:40:59;;;;;;;6.63;0.50;;;3.00;99.90;;;;;;10185053;23;20004;-81
2023/01/14 05:49:19;;;;;;;3.92;0.60;;;3.00;99.90;;;;;;10186883;23;20542;-81
2023/01/14 05:53:20;;;;;;;3.10;0.50;;;3.10;99.90;;;;;;10185938;23;20009;-81
2023/01/14 05:57:21;;;;;;;3.08;0.60;;;2.90;99.90;;;;;;10160254;23;20081;-81
2023/01/14 06:10:00;;;;;;;1.23;0.38;;;2.90;99.90;;;;;;10185299;23;20020;-81
2023/01/14 06:14:02;;;;;;;3.78;0.98;;;2.80;99.90;;;;;;10159756;23;20013;-81
2023/01/14 06:18:13;;;;;;;1.98;0.65;;;3.00;99.90;;;;;;10184096;23;20032;-81
2023/01/14 06:22:14;;;;;;;1.00;0.40;;;3.30;99.90;;;;;;10160364;23;20448;-81
2023/01/14 06:26:17;;;;;;;1.88;0.40;;;3.50;99.90;;;;;;10160436;23;20061;-81
2023/01/14 06:30:18;;;;;;;4.85;0.90;;;3.50;99.90;;;;;;10160230;23;20297;-81
2023/01/14 06:34:21;;;;;;;6.40;0.85;;;3.60;99.90;;;;;;10166789;23;20004;-81
2023/01/14 06:38:22;;;;;;;2.65;0.50;;;3.60;99.90;;;;;;10186488;23;20151;-81
2023/01/14 06:42:22;;;;;;;3.95;0.40;;;3.60;99.90;;;;;;10159742;23;20013;-81
2023/01/14 06:46:23;;;;;;;4.25;1.08;;;3.60;99.90;;;;;;10155061;23;20459;-81
2023/01/14 06:50:23;;;;;;;5.72;1.40;;;3.50;99.90;;;;;;10182197;23;20077;-81
2023/01/14 06:55:20;;;;;;;5.20;1.70;;;3.50;99.90;;;;;;10132797;23;20014;-82
2023/01/14 07:03:24;;;;;;;4.75;1.20;;;3.80;99.90;;;;;;10259086;23;20124;-79
2023/01/14 07:07:24;;;;;;;13.38;4.22;;;4.00;99.90;;;;;;10283172;23;20505;-79
2023/01/14 07:11:25;;;;;;;8.80;3.85;;;4.00;99.90;;;;;;10214160;23;20005;-79
2023/01/14 07:15:25;;;;;;;3.35;1.75;;;4.10;99.90;;;;;;10208274;23;20347;-78
2023/01/14 07:19:26;;;;;;;6.38;1.52;;;4.20;99.90;;;;;;10205372;23;20005;-79
2023/01/14 07:23:26;;;;;;;3.67;1.27;;;4.40;99.90;;;;;;10204553;23;20036;-79
2023/01/14 07:27:28;;;;;;;5.45;1.20;;;4.50;99.90;;;;;;10204407;23;20096;-78
2023/01/14 07:31:29;;;;;;;0.98;0.65;;;4.60;99.90;;;;;;10204135;23;20355;-79
2023/01/14 07:35:30;;;;;;;3.80;0.95;;;4.80;99.90;;;;;;10207764;23;20012;-79
2023/01/14 07:39:31;;;;;;;3.10;0.70;;;4.90;99.90;;;;;;10234624;23;20458;-78
2023/01/14 07:43:31;;;;;;;1.55;0.38;;;5.10;99.90;;;;;;10207458;23;20005;-79
2023/01/14 07:47:32;;;;;;;3.85;1.15;;;5.20;99.90;;;;;;10207397;23;20048;-79
2023/01/14 07:51:32;;;;;;;2.00;1.00;;;5.30;99.90;;;;;;10207698;23;20013;-78
2023/01/14 07:55:34;;;;;;;1.75;0.60;;;5.50;99.90;;;;;;10232746;23;20005;-78
2023/01/14 07:59:35;;;;;;;1.83;1.10;;;5.60;99.90;;;;;;10208170;23;20016;-79
2023/01/14 08:03:37;;;;;;;2.17;1.08;;;5.70;99.90;;;;;;10204193;23;20122;-79
2023/01/14 08:07:37;;;;;;;4.60;0.70;;;5.70;99.90;;;;;;10233460;23;20435;-79
2023/01/14 08:11:38;;;;;;;2.58;1.00;;;5.60;99.90;;;;;;10235208;23;20005;-79
2023/01/14 08:15:39;;;;;;;2.17;1.10;;;5.60;99.90;;;;;;10207890;23;20068;-78
2023/01/14 08:19:39;;;;;;;1.73;0.80;;;5.60;99.90;;;;;;10207682;23;20342;-79
2023/01/14 08:23:40;;;;;;;0.40;0.40;;;5.50;99.90;;;;;;10207544;23;20059;-79
2023/01/14 08:27:41;;;;;;;1.35;0.50;;;5.60;99.90;;;;;;10207333;23;20372;-79
2023/01/14 08:31:41;;;;;;;2.42;0.88;;;5.70;99.90;;;;;;10231878;23;20295;-79
2023/01/14 08:35:42;;;;;;;3.70;0.85;;;5.60;99.90;;;;;;10232060;23;20087;-79
2023/01/14 08:39:42;;;;;;;2.75;0.70;;;5.60;99.90;;;;;;10206734;23;20013;-80
2023/01/14 08:43:46;;;;;;;1.95;0.95;;;5.60;99.90;;;;;;10231678;23;20685;-78
2023/01/14 08:47:47;;;;;;;1.50;0.60;;;5.80;99.90;;;;;;10207138;23;20017;-78
2023/01/14 08:51:49;;;;;;;1.00;0.63;;;5.80;99.90;;;;;;10206752;23;20079;-79
2023/01/14 08:55:49;;;;;;;2.75;1.20;;;6.00;99.90;;;;;;10233205;23;20072;-79
2023/01/14 08:59:50;;;;;;;3.47;1.40;;;6.30;99.90;;;;;;10206571;23;20009;-79
2023/01/14 09:03:52;;;;;;;2.30;0.85;;;6.50;99.90;;;;;;10206438;23;20096;-79
2023/01/14 09:20:51;;;;;;;1.25;0.85;;;6.70;99.90;;;;;;10233831;23;20016;-78
2023/01/14 09:24:52;;;;;;;2.90;1.20;;;7.00;99.90;;;;;;10207930;23;20001;-79
2023/01/14 09:28:53;;;;;;;1.73;1.38;;;7.70;99.90;;;;;;10206650;23;20016;-78
2023/01/14 09:32:53;;;;;;;1.60;0.90;;;8.20;99.90;;;;;;10207615;23;20012;-78
2023/01/14 09:36:54;;;;;;;2.53;0.50;;;8.50;99.90;;;;;;10208490;23;20013;-78
2023/01/14 09:40:55;;;;;;;2.50;0.70;;;8.40;99.90;;;;;;10207131;23;20001;-78
2023/01/14 09:45:01;;;;;;;1.48;0.60;;;8.00;99.90;;;;;;10206687;23;20461;-78
2023/01/14 09:49:04;;;;;;;1.17;0.55;;;8.00;99.90;;;;;;10207307;23;20016;-79
2023/01/14 09:53:23;;;;;;;0.73;0.52;;;7.90;99.90;;;;;;10206177;23;20009;-78
2023/01/14 09:57:43;;;;;;;1.63;0.60;;;7.80;99.90;;;;;;10205936;23;20020;-79
2023/01/14 10:02:07;;;;;;;4.88;1.55;;;7.80;99.90;;;;;;10209670;23;20013;-79
2023/01/14 10:06:13;;;;;;;3.00;0.77;;;7.90;99.90;;;;;;10232951;23;20383;-79
2023/01/14 10:10:23;;;;;;;0.70;0.70;;;8.00;99.90;;;;;;10205735;23;20294;-78
2023/01/14 10:14:27;;;;;;;;;;;8.00;99.90;;;;;;10206163;23;20020;-79
2023/01/14 10:18:33;;;;;;;0.98;0.50;;;8.00;99.90;;;;;;10230795;23;20414;-78
2023/01/14 10:22:39;;;;;;;13.10;5.25;;;7.90;99.90;;;;;;10206338;23;20016;-78
2023/01/14 10:26:42;;;;;;;18.08;6.63;;;8.00;99.90;;;;;;10204505;23;20095;-78
2023/01/14 10:30:44;;;;;;;26.38;11.38;;;7.90;99.90;;;;;;10231194;23;20009;-79
2023/01/14 10:34:49;;;;;;;30.83;12.10;;;8.00;99.90;;;;;;10233695;23;20611;-78
2023/01/14 10:38:50;;;;;;;11.10;3.92;;;8.20;99.90;;;;;;10205045;23;20016;-79
2023/01/14 10:42:56;;;;;;;30.33;12.57;;;8.40;99.90;;;;;;10205048;23;20025;-78
2023/01/14 10:47:00;;;;;;;6.45;2.92;;;8.60;99.90;;;;;;10230928;23;20320;-78
2023/01/14 10:51:36;;;;;;;1.15;0.60;;;8.70;99.90;;;;;;10204757;23;20023;-78
2023/01/14 10:55:46;;;;;;;2.50;1.23;;;9.00;99.90;;;;;;10204784;23;20005;-79
2023/01/14 10:59:55;;;;;;;2.33;1.02;;;9.10;99.90;;;;;;10204158;23;20009;-77
2023/01/14 11:03:57;;;;;;;6.18;2.90;;;9.30;99.90;;;;;;10237783;23;20371;-87
2023/01/14 11:08:05;;;;;;;0.70;0.38;;;9.50;99.90;;;;;;10211856;23;20005;-88
2023/01/14 11:12:05;;;;;;;1.98;1.00;;;9.70;99.90;;;;;;10207894;23;20450;-88
2023/01/14 11:16:06;;;;;;;4.40;1.35;;;9.90;99.90;;;;;;10207300;23;20008;-88
2023/01/14 11:20:33;;;;;;;1.30;0.50;;;10.10;99.90;;;;;;10233402;23;20009;-88
2023/01/14 11:24:40;;;;;;;2.15;1.60;;;10.10;99.90;;;;;;10200482;23;20371;-87
2023/01/14 11:28:46;;;;;;;5.28;3.35;;;10.10;99.90;;;;;;10206899;23;20015;-87
2023/01/14 11:32:52;;;;;;;3.10;1.38;;;10.20;99.90;;;;;;10210508;23;20324;-87
2023/01/14 11:37:10;;;;;;;0.68;0.35;;;10.40;99.90;;;;;;10210936;23;20013;-87
2023/01/14 11:41:36;;;;;;;1.30;0.40;;;10.50;99.90;;;;;;10236896;23;20455;-79
2023/01/14 11:45:36;;;;;;;1.35;0.70;;;10.70;99.90;;;;;;10204922;23;20009;-78
2023/01/14 11:49:37;;;;;;;0.73;0.50;;;10.60;99.90;;;;;;10230977;23;20511;-78
2023/01/14 11:53:46;;;;;;;2.40;0.75;;;10.50;99.90;;;;;;10204350;23;20005;-79
2023/01/14 11:57:47;;;;;;;1.63;0.75;;;10.60;99.90;;;;;;10204920;23;20087;-79
2023/01/14 12:01:53;;;;;;;3.30;1.40;;;10.50;99.90;;;;;;10226931;23;20012;-79
2023/01/14 12:05:54;;;;;;;1.00;0.60;;;10.50;99.90;;;;;;10204720;23;20084;-78
2023/01/14 12:10:04;;;;;;;1.30;0.70;;;10.30;99.90;;;;;;10231975;23;20005;-78
2023/01/14 12:18:37;;;;;;;2.88;0.40;;;10.10;99.90;;;;;;10222078;23;20040;-79
2023/01/14 12:23:00;;;;;;;5.75;1.88;;;10.20;99.90;;;;;;10204978;23;20036;-79
2023/01/14 12:27:02;;;;;;;8.52;3.38;;;10.10;99.90;;;;;;10230569;23;20001;-79
2023/01/14 12:31:21;;;;;;;6.35;2.75;;;10.10;99.90;;;;;;10203487;23;20334;-78
2023/01/14 12:35:23;;;;;;;10.10;4.25;;;10.10;99.90;;;;;;10206545;23;20004;-78
2023/01/14 12:48:19;;;;;;;4.22;1.10;;;9.90;99.90;;;;;;10232261;23;20534;-79
2023/01/14 12:52:29;;;;;;;1.85;0.80;;;10.10;99.90;;;;;;10206098;23;20092;-78
2023/01/14 12:56:32;;;;;;;10.83;4.23;;;10.30;99.90;;;;;;10206490;23;20429;-79
2023/01/14 13:00:35;;;;;;;3.38;2.15;;;10.60;99.90;;;;;;10232528;23;20009;-79
2023/01/14 13:04:44;;;;;;;12.55;4.72;;;10.40;99.90;;;;;;10232110;23;20056;-79
2023/01/14 13:08:51;;;;;;;7.60;3.10;;;10.20;99.90;;;;;;10231527;23;20437;-78
2023/01/14 13:12:52;;;;;;;3.70;1.65;;;10.20;99.90;;;;;;10206344;23;20474;-78
2023/01/14 13:16:59;;;;;;;8.77;2.67;;;10.20;99.90;;;;;;10205709;23;20116;-79
2023/01/14 13:21:02;;;;;;;4.78;1.85;;;10.00;99.90;;;;;;10205970;23;20105;-78
2023/01/14 13:25:18;;;;;;;2.42;0.65;;;9.90;99.90;;;;;;10232224;23;20001;-78
2023/01/14 13:29:22;;;;;;;1.30;0.77;;;9.80;99.90;;;;;;10207148;23;20015;-79
2023/01/14 13:33:32;;;;;;;0.65;0.50;;;9.60;99.90;;;;;;10209073;23;20016;-79
2023/01/14 13:37:41;;;;;;;2.13;1.30;;;9.50;99.90;;;;;;10209277;23;20013;-79
2023/01/14 13:41:48;;;;;;;1.63;0.82;;;9.40;99.90;;;;;;10208916;23;20001;-79
2023/01/14 13:45:56;;;;;;;0.82;0.40;;;9.30;99.90;;;;;;10207594;23;20012;-78
2023/01/14 13:50:01;;;;;;;2.88;1.10;;;9.20;99.90;;;;;;10234854;23;20089;-79
2023/01/14 13:54:07;;;;;;;10.80;4.72;;;9.10;99.90;;;;;;10213807;23;20040;-79
2023/01/14 13:58:21;;;;;;;0.77;0.70;;;9.20;99.90;;;;;;10213146;23;20431;-79
2023/01/14 14:02:40;;;;;;;0.55;0.30;;;9.00;99.90;;;;;;10211420;23;20009;-78
2023/01/14 14:06:44;;;;;;;5.13;2.78;;;9.00;99.90;;;;;;10218479;23;20250;-81
2023/01/14 14:10:56;;;;;;;3.00;1.13;;;8.80;99.90;;;;;;10249451;23;20014;-81
2023/01/14 14:14:59;;;;;;;4.28;2.33;;;8.90;99.90;;;;;;10254358;23;20104;-81
2023/01/14 14:19:08;;;;;;;1.35;1.00;;;8.80;99.90;;;;;;10228932;23;20020;-81
2023/01/14 14:23:21;;;;;;;4.07;1.50;;;8.70;99.90;;;;;;10205118;23;20052;-82
2023/01/14 14:27:35;;;;;;;3.85;1.20;;;8.70;99.90;;;;;;10232983;23;20033;-82
2023/01/14 14:31:39;;;;;;;3.65;1.42;;;8.80;99.90;;;;;;10204973;23;20354;-82
2023/01/14 14:35:43;;;;;;;2.67;1.25;;;8.70;99.90;;;;;;10206287;23;20045;-81
2023/01/14 14:39:53;;;;;;;2.65;1.10;;;8.70;99.90;;;;;;10206083;23;20013;-80
2023/01/14 14:44:08;;;;;;;2.00;1.13;;;8.50;99.90;;;;;;10206577;23;20009;-82
2023/01/14 14:48:26;;;;;;;1.27;0.88;;;8.40;99.90;;;;;;10232153;23;19998;-82
2023/01/14 14:52:27;;;;;;;1.27;0.77;;;8.40;99.90;;;;;;10230312;23;20052;-81
2023/01/14 14:56:30;;;;;;;0.98;0.70;;;8.20;99.90;;;;;;10201319;23;20012;-81
2023/01/14 15:00:31;;;;;;;3.15;0.70;;;8.10;99.90;;;;;;10202469;23;20012;-81
2023/01/14 15:04:31;;;;;;;1.75;0.55;;;8.10;99.90;;;;;;10230986;23;19998;-81
2023/01/14 15:08:35;;;;;;;1.45;0.68;;;8.10;99.90;;;;;;10204804;23;20012;-81
2023/01/14 15:12:36;;;;;;;0.47;0.40;;;8.10;99.90;;;;;;10207710;23;20048;-81
2023/01/14 15:16:37;;;;;;;2.03;0.50;;;7.90;99.90;;;;;;10205259;23;20431;-82
2023/01/14 15:20:38;;;;;;;2.50;0.77;;;7.90;99.90;;;;;;10204778;23;20521;-81
2023/01/14 15:24:40;;;;;;;2.83;0.75;;;7.90;99.90;;;;;;10232136;23;20001;-81
2023/01/14 15:28:43;;;;;;;0.52;0.50;;;7.90;99.90;;;;;;10205415;23;20008;-82
2023/01/14 15:32:43;;;;;;;1.02;0.60;;;7.90;99.90;;;;;;10231922;23;20522;-81
2023/01/14 15:37:08;;;;;;;1.25;0.50;;;7.80;99.90;;;;;;10205155;23;20309;-81
2023/01/14 15:41:12;;;;;;;1.65;0.77;;;7.80;99.90;;;;;;10215575;23;20009;-82
2023/01/14 15:45:32;;;;;;;2.53;0.70;;;7.70;99.90;;;;;;10207058;23;20016;-81
2023/01/14 15:49:33;;;;;;;2.78;0.90;;;7.70;99.90;;;;;;10207839;23;20013;-81
2023/01/14 15:53:34;;;;;;;0.98;0.63;;;7.80;99.90;;;;;;10209778;23;20020;-81
2023/01/14 15:57:42;;;;;;;2.63;0.88;;;7.70;99.90;;;;;;10237349;23;20008;-80
2023/01/14 16:01:53;;;;;;;1.70;0.63;;;7.70;99.90;;;;;;10212010;23;20060;-81
2023/01/14 16:05:54;;;;;;;2.80;0.85;;;7.60;99.90;;;;;;10212099;23;20013;-81
2023/01/14 16:10:03;;;;;;;1.65;0.90;;;7.50;99.90;;;;;;10210705;23;20436;-82
2023/01/14 16:14:11;;;;;;;2.35;0.80;;;7.50;99.90;;;;;;10238440;23;20005;-82
2023/01/14 16:18:15;;;;;;;3.22;0.70;;;7.60;99.90;;;;;;10211355;23;20005;-82
2023/01/14 16:22:15;;;;;;;0.45;0.40;;;7.40;99.90;;;;;;10211214;23;20001;-80
2023/01/14 16:26:16;;;;;;;3.80;0.57;;;7.30;99.90;;;;;;10235366;23;20001;-81
2023/01/14 16:30:17;;;;;;;5.28;0.80;;;7.50;99.90;;;;;;10231671;23;20028;-81
2023/01/14 16:34:17;;;;;;;0.50;0.50;;;7.60;99.90;;;;;;10207044;23;20020;-80
2023/01/14 16:38:18;;;;;;;1.67;0.80;;;7.40;99.90;;;;;;10206331;23;20347;-81
2023/01/14 16:42:18;;;;;;;1.10;0.60;;;7.40;99.90;;;;;;10232557;23;20076;-81
2023/01/14 16:46:19;;;;;;;2.10;0.98;;;7.50;99.90;;;;;;10231085;23;20056;-81
2023/01/14 16:50:19;;;;;;;1.42;0.70;;;7.70;99.90;;;;;;10229198;23;20001;-81
2023/01/14 16:54:21;;;;;;;3.25;1.10;;;7.70;99.90;;;;;;10227427;23;20028;-80
2023/01/14 16:58:21;;;;;;;6.78;2.35;;;7.40;99.90;;;;;;10202971;23;20009;-80
2023/01/14 17:02:22;;;;;;;1.15;0.75;;;7.00;99.90;;;;;;10204098;23;20009;-81
2023/01/14 17:06:23;;;;;;;2.00;0.80;;;6.90;99.90;;;;;;10202975;23;20017;-80
2023/01/14 17:10:23;;;;;;;22.35;9.82;;;6.60;99.90;;;;;;10204360;23;20013;-79
2023/01/14 17:14:24;;;;;;;17.33;6.78;;;6.50;99.90;;;;;;10205771;23;19997;-80
2023/01/14 17:18:24;;;;;;;1.20;0.60;;;6.40;99.90;;;;;;10207158;23;20001;-80
2023/01/14 17:22:25;;;;;;;1.80;0.70;;;6.40;99.90;;;;;;10207281;23;20009;-80
2023/01/14 17:26:25;;;;;;;2.92;0.65;;;6.40;99.90;;;;;;10206189;23;20526;-82
2023/01/14 17:30:27;;;;;;;0.73;0.57;;;6.40;99.90;;;;;;10203904;23;20013;-80
2023/01/14 17:34:32;;;;;;;1.08;0.50;;;6.50;99.90;;;;;;10203628;23;20579;-84
2023/01/14 17:38:33;;;;;;;2.72;0.68;;;6.60;99.90;;;;;;10230101;23;20030;-81
2023/01/14 17:42:33;;;;;;;2.63;0.70;;;6.80;99.90;;;;;;10202490;23;20009;-81
2023/01/14 17:46:35;;;;;;;4.05;1.05;;;6.90;99.90;;;;;;10229962;23;20012;-81
2023/01/14 17:50:36;;;;;;;1.20;0.70;;;6.90;99.90;;;;;;10201624;23;20005;-80
2023/01/14 17:54:37;;;;;;;2.63;0.75;;;7.00;99.90;;;;;;10226337;23;20001;-81
2023/01/14 17:58:38;;;;;;;1.13;0.60;;;7.00;99.90;;;;;;10198098;23;20012;-81
2023/01/14 18:02:38;;;;;;;1.33;0.85;;;7.10;99.90;;;;;;10202272;23;20005;-81
2023/01/14 18:06:39;;;;;;;3.63;0.80;;;7.10;99.90;;;;;;10203905;23;20587;-82
2023/01/14 18:10:40;;;;;;;2.22;0.80;;;7.10;99.90;;;;;;10203305;23;20446;-81
2023/01/14 18:14:41;;;;;;;2.65;0.63;;;7.10;99.90;;;;;;10202137;23;20350;-81
2023/01/14 18:18:42;;;;;;;2.25;0.80;;;7.20;99.90;;;;;;10200136;23;20009;-81
2023/01/14 18:22:42;;;;;;;1.63;0.88;;;7.20;99.90;;;;;;10226941;23;20017;-81
2023/01/14 18:26:43;;;;;;;1.45;0.80;;;7.20;99.90;;;;;;10200174;23;20056;-81
2023/01/14 18:30:43;;;;;;;2.25;0.77;;;7.30;99.90;;;;;;10200782;23;20041;-81
2023/01/14 18:34:44;;;;;;;1.48;0.40;;;7.30;99.90;;;;;;10201170;23;20001;-80
2023/01/14 18:38:44;;;;;;;0.75;0.50;;;7.30;99.90;;;;;;10199645;23;20487;-82
2023/01/14 18:42:45;;;;;;;4.45;0.68;;;7.40;99.90;;;;;;10227473;23;20032;-81
2023/01/14 18:46:46;;;;;;;1.25;0.50;;;7.40;99.90;;;;;;10201324;23;20051;-81
2023/01/14 18:50:47;;;;;;;1.27;0.73;;;7.40;99.90;;;;;;10200455;23;20001;-81
2023/01/14 18:54:47;;;;;;;0.45;0.45;;;7.50;99.90;;;;;;10200499;23;20015;-81
2023/01/14 18:58:49;;;;;;;1.10;0.50;;;7.60;99.90;;;;;;10200348;23;20027;-81
2023/01/14 19:02:50;;;;;;;0.88;0.47;;;7.70;99.90;;;;;;10225326;23;20435;-81
2023/01/14 19:06:50;;;;;;;1.77;0.60;;;7.70;99.90;;;;;;10199960;23;20016;-81
2023/01/14 19:10:58;;;;;;;2.45;0.57;;;7.80;99.90;;;;;;10227074;23;20005;-81
2023/01/14 19:15:00;;;;;;;0.77;0.40;;;7.90;99.90;;;;;;10200286;23;20005;-81
2023/01/14 19:19:00;;;;;;;2.53;0.68;;;7.90;99.90;;;;;;10200956;23;20013;-81
2023/01/14 19:23:01;;;;;;;0.77;0.45;;;7.90;99.90;;;;;;10227629;23;20431;-81
2023/01/14 19:27:02;;;;;;;0.15;0.15;;;8.00;99.90;;;;;;10200320;23;20559;-81
2023/01/14 19:31:08;;;;;;;1.30;0.45;;;8.00;99.90;;;;;;10204786;23;20212;-81
2023/01/14 19:35:08;;;;;;;0.55;0.50;;;8.10;99.90;;;;;;10204820;23;20048;-81
2023/01/14 19:39:09;;;;;;;0.93;0.50;;;8.10;99.90;;;;;;10204175;23;20328;-81
2023/01/14 19:43:10;;;;;;;2.17;0.52;;;8.20;99.90;;;;;;10204125;23;20005;-81
2023/01/14 19:47:10;;;;;;;1.20;0.60;;;8.30;99.90;;;;;;10203405;23;20228;-81
2023/01/14 19:51:14;;;;;;;0.63;0.57;;;8.30;99.90;;;;;;10230047;23;20386;-81
2023/01/14 19:55:14;;;;;;;1.63;0.47;;;8.30;99.90;;;;;;10204813;23;20083;-80
2023/01/14 19:59:15;;;;;;;0.82;0.32;;;8.40;99.90;;;;;;10231963;23;20005;-81
2023/01/14 20:03:16;;;;;;;0.90;0.43;;;8.50;99.90;;;;;;10204732;23;20124;-82
2023/01/14 20:07:16;;;;;;;0.60;0.40;;;8.60;99.90;;;;;;10205558;23;20474;-80
2023/01/14 20:11:18;;;;;;;0.57;0.55;;;8.60;99.90;;;;;;10205138;23;20060;-80
2023/01/14 20:15:18;;;;;;;1.02;0.50;;;8.70;99.90;;;;;;10206348;23;20044;-80
2023/01/14 20:19:19;;;;;;;1.08;0.40;;;8.70;99.90;;;;;;10205644;23;20009;-81
2023/01/14 20:23:19;;;;;;;0.70;0.30;;;8.60;99.90;;;;;;10231380;23;20772;-80
2023/01/14 20:27:20;;;;;;;0.57;0.40;;;8.60;99.90;;;;;;10231978;23;20019;-80
2023/01/14 20:31:26;;;;;;;0.57;0.50;;;8.70;99.90;;;;;;10205406;23;20019;-81
2023/01/14 20:35:27;;;;;;;0.30;0.20;;;8.70;99.90;;;;;;10205450;23;20061;-80
2023/01/14 20:39:27;;;;;;;0.68;0.50;;;8.80;99.90;;;;;;10231857;23;20009;-80
2023/01/14 20:43:29;;;;;;;2.20;0.50;;;8.70;99.90;;;;;;10205394;23;20032;-81
2023/01/14 20:47:33;;;;;;;1.50;0.40;;;8.80;99.90;;;;;;10204717;23;20087;-81
2023/01/14 20:51:33;;;;;;;0.82;0.40;;;8.80;99.90;;;;;;10230373;23;20012;-81
2023/01/14 20:55:34;;;;;;;0.68;0.28;;;8.80;99.90;;;;;;10230960;23;20005;-79
2023/01/14 20:59:36;;;;;;;1.23;0.55;;;8.80;99.90;;;;;;10230239;23;20009;-81
2023/01/14 21:03:38;;;;;;;0.30;0.22;;;8.80;99.90;;;;;;10230268;23;20016;-80
2023/01/14 21:07:39;;;;;;;0.52;0.30;;;8.80;99.90;;;;;;10203405;23;20310;-80
2023/01/14 21:11:40;;;;;;;0.45;0.35;;;8.80;99.90;;;;;;10229626;23;20061;-81
2023/01/14 21:24:19;;;;;;;1.45;0.60;;;8.80;99.90;;;;;;10230269;23;20090;-81
2023/01/14 21:28:19;;;;;;;0.55;0.40;;;8.80;99.90;;;;;;10229972;23;20266;-81
2023/01/14 21:32:21;;;;;;;1.95;0.50;;;8.70;99.90;;;;;;10230597;23;20084;-80
2023/01/14 21:36:22;;;;;;;1.00;0.45;;;8.80;99.90;;;;;;10203686;23;20013;-80
2023/01/14 21:40:25;;;;;;;3.55;0.50;;;8.70;99.90;;;;;;10229823;23;20043;-81
2023/01/14 21:44:26;;;;;;;0.85;0.40;;;8.70;99.90;;;;;;10228831;23;20447;-80
2023/01/14 21:48:27;;;;;;;0.45;0.32;;;8.80;99.90;;;;;;10229768;23;20198;-80
2023/01/14 21:52:28;;;;;;;0.98;0.40;;;8.80;99.90;;;;;;10229800;23;20320;-80
2023/01/14 21:56:28;;;;;;;0.57;0.40;;;8.80;99.90;;;;;;10203153;23;20005;-80
2023/01/14 22:00:30;;;;;;;1.48;0.45;;;8.80;99.90;;;;;;10203211;23;20009;-80